sensor_id;sensor_type;location;lat;lon;timestamp;P1;durP1;ratioP1;P2;durP2;ratioP2
68700;SDS011;55682;51.114;5.882;2023-12-20T00:01:36;8.89;;;8.66;;
68700;SDS011;55682;51.114;5.882;2023-12-20T00:04:02;8.86;;;8.78;;
68700;SDS011;55682;51.114;5.882;2023-12-20T00:06:29;8.49;;;8.49;;
68700;SDS011;55682;51.114;5.882;2023-12-20T00:08:55;8.16;;;8.15;;
68700;SDS011;55682;51.114;5.882;2023-12-20T00:11:21;8.13;;;8.03;;
68700;SDS011;55682;51.114;5.882;2023-12-20T00:13:46;7.64;;;7.62;;
68700;SDS011;55682;51.114;5.882;2023-12-20T00:16:12;6.90;;;6.89;;
68700;SDS011;55682;51.114;5.882;2023-12-20T00:18:38;6.92;;;6.91;;
68700;SDS011;55682;51.114;5.882;2023-12-20T00:21:03;6.60;;;6.60;;
68700;SDS011;55682;51.114;5.882;2023-12-20T00:23:29;6.22;;;6.22;;
68700;SDS011;55682;51.114;5.882;2023-12-20T00:25:55;6.35;;;6.35;;
68700;SDS011;55682;51.114;5.882;2023-12-20T00:28:20;5.57;;;5.57;;
68700;SDS011;55682;51.114;5.882;2023-12-20T00:30:46;5.54;;;5.53;;
68700;SDS011;55682;51.114;5.882;2023-12-20T00:33:11;5.33;;;5.33;;
68700;SDS011;55682;51.114;5.882;2023-12-20T00:35:37;4.21;;;4.21;;
68700;SDS011;55682;51.114;5.882;2023-12-20T00:38:03;3.67;;;3.67;;
68700;SDS011;55682;51.114;5.882;2023-12-20T00:40:30;3.83;;;3.83;;
68700;SDS011;55682;51.114;5.882;2023-12-20T00:42:56;3.76;;;3.70;;
68700;SDS011;55682;51.114;5.882;2023-12-20T00:45:21;3.48;;;3.40;;
68700;SDS011;55682;51.114;5.882;2023-12-20T00:47:47;3.44;;;3.30;;
68700;SDS011;55682;51.114;5.882;2023-12-20T00:50:12;3.76;;;3.59;;
68700;SDS011;55682;51.114;5.882;2023-12-20T00:52:38;2.86;;;2.76;;
68700;SDS011;55682;51.114;5.882;2023-12-20T00:55:04;2.74;;;2.60;;
68700;SDS011;55682;51.114;5.882;2023-12-20T00:57:30;2.59;;;2.42;;
68700;SDS011;55682;51.114;5.882;2023-12-20T00:59:56;2.61;;;2.38;;
68700;SDS011;55682;51.114;5.882;2023-12-20T01:02:22;2.41;;;2.12;;
68700;SDS011;55682;51.114;5.882;2023-12-20T01:04:47;2.65;;;2.35;;
68700;SDS011;55682;51.114;5.882;2023-12-20T01:07:13;2.44;;;2.19;;
68700;SDS011;55682;51.114;5.882;2023-12-20T01:09:38;2.63;;;2.32;;
68700;SDS011;55682;51.114;5.882;2023-12-20T01:12:04;2.71;;;2.38;;
68700;SDS011;55682;51.114;5.882;2023-12-20T01:14:30;2.69;;;2.31;;
68700;SDS011;55682;51.114;5.882;2023-12-20T01:16:55;2.94;;;2.51;;
68700;SDS011;55682;51.114;5.882;2023-12-20T01:19:21;3.09;;;2.63;;
68700;SDS011;55682;51.114;5.882;2023-12-20T01:21:47;3.17;;;2.71;;
68700;SDS011;55682;51.114;5.882;2023-12-20T01:24:13;2.88;;;2.46;;
68700;SDS011;55682;51.114;5.882;2023-12-20T01:26:39;2.81;;;2.45;;
68700;SDS011;55682;51.114;5.882;2023-12-20T01:29:04;2.94;;;2.54;;
68700;SDS011;55682;51.114;5.882;2023-12-20T01:31:30;2.84;;;2.40;;
68700;SDS011;55682;51.114;5.882;2023-12-20T01:33:56;2.73;;;2.25;;
68700;SDS011;55682;51.114;5.882;2023-12-20T01:36:21;2.86;;;2.36;;
68700;SDS011;55682;51.114;5.882;2023-12-20T01:38:47;3.17;;;2.57;;
68700;SDS011;55682;51.114;5.882;2023-12-20T01:41:12;2.67;;;2.16;;
68700;SDS011;55682;51.114;5.882;2023-12-20T01:43:38;2.68;;;2.16;;
68700;SDS011;55682;51.114;5.882;2023-12-20T01:46:03;3.33;;;2.65;;
68700;SDS011;55682;51.114;5.882;2023-12-20T01:48:29;2.99;;;2.39;;
68700;SDS011;55682;51.114;5.882;2023-12-20T01:50:58;3.33;;;2.63;;
68700;SDS011;55682;51.114;5.882;2023-12-20T01:53:25;2.79;;;2.26;;
68700;SDS011;55682;51.114;5.882;2023-12-20T01:55:54;2.83;;;2.28;;
68700;SDS011;55682;51.114;5.882;2023-12-20T01:58:21;3.25;;;2.59;;
68700;SDS011;55682;51.114;5.882;2023-12-20T02:00:48;3.17;;;2.52;;
68700;SDS011;55682;51.114;5.882;2023-12-20T02:03:14;3.10;;;2.41;;
68700;SDS011;55682;51.114;5.882;2023-12-20T02:05:40;3.78;;;2.95;;
68700;SDS011;55682;51.114;5.882;2023-12-20T02:08:06;3.37;;;2.59;;
68700;SDS011;55682;51.114;5.882;2023-12-20T02:10:32;3.67;;;2.83;;
68700;SDS011;55682;51.114;5.882;2023-12-20T02:13:00;3.66;;;2.83;;
68700;SDS011;55682;51.114;5.882;2023-12-20T02:15:25;3.68;;;2.91;;
68700;SDS011;55682;51.114;5.882;2023-12-20T02:17:51;3.48;;;2.81;;
68700;SDS011;55682;51.114;5.882;2023-12-20T02:20:17;3.82;;;3.13;;
68700;SDS011;55682;51.114;5.882;2023-12-20T02:22:43;2.88;;;2.38;;
68700;SDS011;55682;51.114;5.882;2023-12-20T02:25:08;3.20;;;2.64;;
68700;SDS011;55682;51.114;5.882;2023-12-20T02:27:34;3.33;;;2.71;;
68700;SDS011;55682;51.114;5.882;2023-12-20T02:30:00;3.28;;;2.64;;
68700;SDS011;55682;51.114;5.882;2023-12-20T02:32:26;2.97;;;2.47;;
68700;SDS011;55682;51.114;5.882;2023-12-20T02:34:53;3.48;;;2.79;;
68700;SDS011;55682;51.114;5.882;2023-12-20T02:37:19;3.80;;;2.99;;
68700;SDS011;55682;51.114;5.882;2023-12-20T02:39:45;4.16;;;3.30;;
68700;SDS011;55682;51.114;5.882;2023-12-20T02:42:10;3.66;;;2.92;;
68700;SDS011;55682;51.114;5.882;2023-12-20T02:44:36;3.92;;;3.12;;
68700;SDS011;55682;51.114;5.882;2023-12-20T02:47:02;3.81;;;3.04;;
68700;SDS011;55682;51.114;5.882;2023-12-20T02:49:28;3.51;;;2.89;;
68700;SDS011;55682;51.114;5.882;2023-12-20T02:51:53;3.35;;;2.78;;
68700;SDS011;55682;51.114;5.882;2023-12-20T02:54:19;3.18;;;2.65;;
68700;SDS011;55682;51.114;5.882;2023-12-20T02:56:44;3.52;;;2.86;;
68700;SDS011;55682;51.114;5.882;2023-12-20T02:59:10;3.65;;;2.95;;
68700;SDS011;55682;51.114;5.882;2023-12-20T03:01:41;3.39;;;2.79;;
68700;SDS011;55682;51.114;5.882;2023-12-20T03:04:11;3.60;;;2.98;;
68700;SDS011;55682;51.114;5.882;2023-12-20T03:06:37;3.66;;;3.04;;
68700;SDS011;55682;51.114;5.882;2023-12-20T03:09:03;3.99;;;3.31;;
68700;SDS011;55682;51.114;5.882;2023-12-20T03:11:29;4.20;;;3.51;;
68700;SDS011;55682;51.114;5.882;2023-12-20T03:13:55;3.88;;;3.27;;
68700;SDS011;55682;51.114;5.882;2023-12-20T03:16:21;4.05;;;3.42;;
68700;SDS011;55682;51.114;5.882;2023-12-20T03:18:47;4.19;;;3.56;;
68700;SDS011;55682;51.114;5.882;2023-12-20T03:21:13;3.83;;;3.35;;
68700;SDS011;55682;51.114;5.882;2023-12-20T03:23:38;4.13;;;3.67;;
68700;SDS011;55682;51.114;5.882;2023-12-20T03:26:06;4.13;;;3.73;;
68700;SDS011;55682;51.114;5.882;2023-12-20T03:28:33;4.19;;;3.81;;
68700;SDS011;55682;51.114;5.882;2023-12-20T03:30:58;4.03;;;3.69;;
68700;SDS011;55682;51.114;5.882;2023-12-20T03:33:24;4.34;;;3.98;;
68700;SDS011;55682;51.114;5.882;2023-12-20T03:35:50;3.95;;;3.62;;
68700;SDS011;55682;51.114;5.882;2023-12-20T03:38:15;3.66;;;3.36;;
68700;SDS011;55682;51.114;5.882;2023-12-20T03:40:41;3.86;;;3.62;;
68700;SDS011;55682;51.114;5.882;2023-12-20T03:43:07;3.83;;;3.48;;
68700;SDS011;55682;51.114;5.882;2023-12-20T03:45:32;3.64;;;3.33;;
68700;SDS011;55682;51.114;5.882;2023-12-20T03:47:58;3.65;;;3.31;;
68700;SDS011;55682;51.114;5.882;2023-12-20T03:50:24;3.66;;;3.42;;
68700;SDS011;55682;51.114;5.882;2023-12-20T03:52:50;3.80;;;3.52;;
68700;SDS011;55682;51.114;5.882;2023-12-20T03:55:16;3.72;;;3.48;;
68700;SDS011;55682;51.114;5.882;2023-12-20T03:57:42;4.18;;;3.86;;
68700;SDS011;55682;51.114;5.882;2023-12-20T04:00:07;4.12;;;3.81;;
68700;SDS011;55682;51.114;5.882;2023-12-20T04:02:40;4.08;;;3.80;;
68700;SDS011;55682;51.114;5.882;2023-12-20T04:05:07;4.08;;;3.77;;
68700;SDS011;55682;51.114;5.882;2023-12-20T04:07:34;4.17;;;3.85;;
68700;SDS011;55682;51.114;5.882;2023-12-20T04:10:01;3.86;;;3.56;;
68700;SDS011;55682;51.114;5.882;2023-12-20T04:12:29;3.95;;;3.69;;
68700;SDS011;55682;51.114;5.882;2023-12-20T04:14:54;4.17;;;3.88;;
68700;SDS011;55682;51.114;5.882;2023-12-20T04:17:20;4.23;;;3.80;;
68700;SDS011;55682;51.114;5.882;2023-12-20T04:19:51;4.15;;;3.74;;
68700;SDS011;55682;51.114;5.882;2023-12-20T04:22:20;4.33;;;3.91;;
68700;SDS011;55682;51.114;5.882;2023-12-20T04:24:45;4.02;;;3.61;;
68700;SDS011;55682;51.114;5.882;2023-12-20T04:27:11;3.70;;;3.30;;
68700;SDS011;55682;51.114;5.882;2023-12-20T04:29:37;4.05;;;3.64;;
68700;SDS011;55682;51.114;5.882;2023-12-20T04:32:03;4.01;;;3.48;;
68700;SDS011;55682;51.114;5.882;2023-12-20T04:34:29;3.97;;;3.42;;
68700;SDS011;55682;51.114;5.882;2023-12-20T04:36:54;3.95;;;3.41;;
68700;SDS011;55682;51.114;5.882;2023-12-20T04:39:20;4.14;;;3.52;;
68700;SDS011;55682;51.114;5.882;2023-12-20T04:41:46;4.58;;;3.90;;
68700;SDS011;55682;51.114;5.882;2023-12-20T04:44:13;4.36;;;3.65;;
68700;SDS011;55682;51.114;5.882;2023-12-20T04:46:38;4.33;;;3.70;;
68700;SDS011;55682;51.114;5.882;2023-12-20T04:49:05;4.36;;;3.73;;
68700;SDS011;55682;51.114;5.882;2023-12-20T04:51:33;3.98;;;3.56;;
68700;SDS011;55682;51.114;5.882;2023-12-20T04:53:59;3.70;;;3.32;;
68700;SDS011;55682;51.114;5.882;2023-12-20T04:56:24;3.68;;;3.26;;
68700;SDS011;55682;51.114;5.882;2023-12-20T04:58:50;4.16;;;3.68;;
68700;SDS011;55682;51.114;5.882;2023-12-20T05:01:16;3.96;;;3.53;;
68700;SDS011;55682;51.114;5.882;2023-12-20T05:03:42;3.67;;;3.31;;
68700;SDS011;55682;51.114;5.882;2023-12-20T05:06:18;3.69;;;3.29;;
68700;SDS011;55682;51.114;5.882;2023-12-20T05:08:43;4.00;;;3.58;;
68700;SDS011;55682;51.114;5.882;2023-12-20T05:11:09;3.75;;;3.40;;
68700;SDS011;55682;51.114;5.882;2023-12-20T05:13:34;3.55;;;3.21;;
68700;SDS011;55682;51.114;5.882;2023-12-20T05:16:00;3.56;;;3.19;;
68700;SDS011;55682;51.114;5.882;2023-12-20T05:18:26;3.58;;;3.22;;
68700;SDS011;55682;51.114;5.882;2023-12-20T05:20:51;4.18;;;3.67;;
68700;SDS011;55682;51.114;5.882;2023-12-20T05:23:17;4.17;;;3.60;;
68700;SDS011;55682;51.114;5.882;2023-12-20T05:25:43;4.17;;;3.64;;
68700;SDS011;55682;51.114;5.882;2023-12-20T05:28:09;3.93;;;3.45;;
68700;SDS011;55682;51.114;5.882;2023-12-20T05:30:34;4.22;;;3.60;;
68700;SDS011;55682;51.114;5.882;2023-12-20T05:33:00;3.45;;;3.07;;
68700;SDS011;55682;51.114;5.882;2023-12-20T05:35:26;3.70;;;3.33;;
68700;SDS011;55682;51.114;5.882;2023-12-20T05:37:51;4.13;;;3.68;;
68700;SDS011;55682;51.114;5.882;2023-12-20T05:40:17;4.29;;;3.77;;
68700;SDS011;55682;51.114;5.882;2023-12-20T05:42:42;4.30;;;3.71;;
68700;SDS011;55682;51.114;5.882;2023-12-20T05:45:08;4.40;;;3.79;;
68700;SDS011;55682;51.114;5.882;2023-12-20T05:47:34;3.91;;;3.39;;
68700;SDS011;55682;51.114;5.882;2023-12-20T05:50:00;4.38;;;3.72;;
68700;SDS011;55682;51.114;5.882;2023-12-20T05:52:25;4.32;;;3.74;;
68700;SDS011;55682;51.114;5.882;2023-12-20T05:54:51;4.02;;;3.52;;
68700;SDS011;55682;51.114;5.882;2023-12-20T05:57:17;3.94;;;3.42;;
68700;SDS011;55682;51.114;5.882;2023-12-20T05:59:42;4.31;;;3.67;;
68700;SDS011;55682;51.114;5.882;2023-12-20T06:02:08;4.49;;;3.74;;
68700;SDS011;55682;51.114;5.882;2023-12-20T06:04:34;4.93;;;4.07;;
68700;SDS011;55682;51.114;5.882;2023-12-20T06:06:59;4.90;;;4.03;;
68700;SDS011;55682;51.114;5.882;2023-12-20T06:09:26;4.91;;;3.97;;
68700;SDS011;55682;51.114;5.882;2023-12-20T06:11:52;4.73;;;3.92;;
68700;SDS011;55682;51.114;5.882;2023-12-20T06:14:18;4.41;;;3.72;;
68700;SDS011;55682;51.114;5.882;2023-12-20T06:16:44;4.51;;;3.88;;
68700;SDS011;55682;51.114;5.882;2023-12-20T06:19:10;4.33;;;3.76;;
68700;SDS011;55682;51.114;5.882;2023-12-20T06:21:36;5.30;;;4.57;;
68700;SDS011;55682;51.114;5.882;2023-12-20T06:24:02;4.76;;;4.17;;
68700;SDS011;55682;51.114;5.882;2023-12-20T06:26:28;4.65;;;4.17;;
68700;SDS011;55682;51.114;5.882;2023-12-20T06:28:53;4.41;;;4.09;;
68700;SDS011;55682;51.114;5.882;2023-12-20T06:31:19;4.50;;;4.17;;
68700;SDS011;55682;51.114;5.882;2023-12-20T06:33:44;4.48;;;4.13;;
68700;SDS011;55682;51.114;5.882;2023-12-20T06:36:13;3.89;;;3.57;;
68700;SDS011;55682;51.114;5.882;2023-12-20T06:38:39;4.55;;;4.20;;
68700;SDS011;55682;51.114;5.882;2023-12-20T06:41:05;5.06;;;4.64;;
68700;SDS011;55682;51.114;5.882;2023-12-20T06:43:31;4.59;;;4.30;;
68700;SDS011;55682;51.114;5.882;2023-12-20T06:45:57;4.72;;;4.43;;
68700;SDS011;55682;51.114;5.882;2023-12-20T06:48:23;4.84;;;4.53;;
68700;SDS011;55682;51.114;5.882;2023-12-20T06:50:49;4.72;;;4.38;;
68700;SDS011;55682;51.114;5.882;2023-12-20T06:53:15;4.46;;;4.13;;
68700;SDS011;55682;51.114;5.882;2023-12-20T06:55:40;4.54;;;4.22;;
68700;SDS011;55682;51.114;5.882;2023-12-20T06:58:06;4.52;;;4.13;;
68700;SDS011;55682;51.114;5.882;2023-12-20T07:00:32;4.90;;;4.41;;
68700;SDS011;55682;51.114;5.882;2023-12-20T07:02:58;5.57;;;4.89;;
68700;SDS011;55682;51.114;5.882;2023-12-20T07:05:23;4.90;;;4.33;;
68700;SDS011;55682;51.114;5.882;2023-12-20T07:07:49;5.03;;;4.44;;
68700;SDS011;55682;51.114;5.882;2023-12-20T07:10:15;5.38;;;4.67;;
68700;SDS011;55682;51.114;5.882;2023-12-20T07:12:40;5.35;;;4.62;;
68700;SDS011;55682;51.114;5.882;2023-12-20T07:15:06;5.26;;;4.62;;
68700;SDS011;55682;51.114;5.882;2023-12-20T07:17:32;4.75;;;4.23;;
68700;SDS011;55682;51.114;5.882;2023-12-20T07:19:59;4.80;;;4.27;;
68700;SDS011;55682;51.114;5.882;2023-12-20T07:22:29;5.02;;;4.45;;
68700;SDS011;55682;51.114;5.882;2023-12-20T07:24:57;4.72;;;4.26;;
68700;SDS011;55682;51.114;5.882;2023-12-20T07:27:23;4.86;;;4.40;;
68700;SDS011;55682;51.114;5.882;2023-12-20T07:29:49;4.31;;;4.00;;
68700;SDS011;55682;51.114;5.882;2023-12-20T07:32:14;4.69;;;4.28;;
68700;SDS011;55682;51.114;5.882;2023-12-20T07:34:40;4.65;;;4.23;;
68700;SDS011;55682;51.114;5.882;2023-12-20T07:37:06;4.81;;;4.44;;
68700;SDS011;55682;51.114;5.882;2023-12-20T07:39:31;4.79;;;4.37;;
68700;SDS011;55682;51.114;5.882;2023-12-20T07:41:57;5.17;;;4.73;;
68700;SDS011;55682;51.114;5.882;2023-12-20T07:44:22;4.56;;;4.22;;
68700;SDS011;55682;51.114;5.882;2023-12-20T07:46:48;5.11;;;4.64;;
68700;SDS011;55682;51.114;5.882;2023-12-20T07:49:13;4.32;;;3.94;;
68700;SDS011;55682;51.114;5.882;2023-12-20T07:51:39;4.47;;;4.13;;
68700;SDS011;55682;51.114;5.882;2023-12-20T07:54:05;4.70;;;4.21;;
68700;SDS011;55682;51.114;5.882;2023-12-20T07:56:30;5.07;;;4.49;;
68700;SDS011;55682;51.114;5.882;2023-12-20T07:58:56;4.75;;;4.11;;
68700;SDS011;55682;51.114;5.882;2023-12-20T08:01:22;4.47;;;3.93;;
68700;SDS011;55682;51.114;5.882;2023-12-20T08:03:48;4.53;;;4.00;;
68700;SDS011;55682;51.114;5.882;2023-12-20T08:06:14;4.75;;;4.22;;
68700;SDS011;55682;51.114;5.882;2023-12-20T08:08:39;4.32;;;3.89;;
68700;SDS011;55682;51.114;5.882;2023-12-20T08:11:05;4.60;;;4.12;;
68700;SDS011;55682;51.114;5.882;2023-12-20T08:13:30;5.16;;;4.47;;
68700;SDS011;55682;51.114;5.882;2023-12-20T08:15:56;4.78;;;4.14;;
68700;SDS011;55682;51.114;5.882;2023-12-20T08:18:22;4.67;;;4.09;;
68700;SDS011;55682;51.114;5.882;2023-12-20T08:20:48;4.13;;;3.64;;
68700;SDS011;55682;51.114;5.882;2023-12-20T08:23:15;4.21;;;3.68;;
68700;SDS011;55682;51.114;5.882;2023-12-20T08:25:40;4.16;;;3.64;;
68700;SDS011;55682;51.114;5.882;2023-12-20T08:28:06;4.05;;;3.47;;
68700;SDS011;55682;51.114;5.882;2023-12-20T08:30:32;4.27;;;3.62;;
68700;SDS011;55682;51.114;5.882;2023-12-20T08:33:01;4.13;;;3.51;;
68700;SDS011;55682;51.114;5.882;2023-12-20T08:35:26;4.57;;;3.86;;
68700;SDS011;55682;51.114;5.882;2023-12-20T08:37:52;4.54;;;3.76;;
68700;SDS011;55682;51.114;5.882;2023-12-20T08:40:18;5.02;;;4.11;;
68700;SDS011;55682;51.114;5.882;2023-12-20T08:42:43;4.63;;;3.83;;
68700;SDS011;55682;51.114;5.882;2023-12-20T08:45:09;4.64;;;3.88;;
68700;SDS011;55682;51.114;5.882;2023-12-20T08:47:35;4.45;;;3.73;;
68700;SDS011;55682;51.114;5.882;2023-12-20T08:50:02;4.62;;;4.00;;
68700;SDS011;55682;51.114;5.882;2023-12-20T08:52:28;3.73;;;3.27;;
68700;SDS011;55682;51.114;5.882;2023-12-20T08:54:54;4.33;;;3.72;;
68700;SDS011;55682;51.114;5.882;2023-12-20T08:57:20;4.34;;;3.83;;
68700;SDS011;55682;51.114;5.882;2023-12-20T08:59:46;4.08;;;3.59;;
68700;SDS011;55682;51.114;5.882;2023-12-20T09:02:13;3.79;;;3.29;;
68700;SDS011;55682;51.114;5.882;2023-12-20T09:04:39;4.39;;;3.76;;
68700;SDS011;55682;51.114;5.882;2023-12-20T09:07:05;4.81;;;4.13;;
68700;SDS011;55682;51.114;5.882;2023-12-20T09:09:31;4.29;;;3.75;;
68700;SDS011;55682;51.114;5.882;2023-12-20T09:11:57;3.90;;;3.47;;
68700;SDS011;55682;51.114;5.882;2023-12-20T09:14:23;4.27;;;3.69;;
68700;SDS011;55682;51.114;5.882;2023-12-20T09:16:49;4.15;;;3.55;;
68700;SDS011;55682;51.114;5.882;2023-12-20T09:19:19;4.37;;;3.83;;
68700;SDS011;55682;51.114;5.882;2023-12-20T09:21:44;3.75;;;3.32;;
68700;SDS011;55682;51.114;5.882;2023-12-20T09:24:10;3.83;;;3.38;;
68700;SDS011;55682;51.114;5.882;2023-12-20T09:26:36;3.59;;;3.03;;
68700;SDS011;55682;51.114;5.882;2023-12-20T09:29:01;3.62;;;3.10;;
68700;SDS011;55682;51.114;5.882;2023-12-20T09:31:27;3.54;;;3.08;;
68700;SDS011;55682;51.114;5.882;2023-12-20T09:33:53;3.67;;;3.09;;
68700;SDS011;55682;51.114;5.882;2023-12-20T09:36:18;3.72;;;3.05;;
68700;SDS011;55682;51.114;5.882;2023-12-20T09:38:44;4.24;;;3.38;;
68700;SDS011;55682;51.114;5.882;2023-12-20T09:41:09;4.07;;;3.25;;
68700;SDS011;55682;51.114;5.882;2023-12-20T09:43:38;4.44;;;3.57;;
68700;SDS011;55682;51.114;5.882;2023-12-20T09:46:06;4.04;;;3.32;;
68700;SDS011;55682;51.114;5.882;2023-12-20T09:48:33;4.27;;;3.51;;
68700;SDS011;55682;51.114;5.882;2023-12-20T09:50:59;3.77;;;3.19;;
68700;SDS011;55682;51.114;5.882;2023-12-20T09:53:25;3.65;;;3.13;;
68700;SDS011;55682;51.114;5.882;2023-12-20T09:55:58;3.85;;;3.25;;
68700;SDS011;55682;51.114;5.882;2023-12-20T09:58:26;4.34;;;3.60;;
68700;SDS011;55682;51.114;5.882;2023-12-20T10:00:52;4.04;;;3.36;;
68700;SDS011;55682;51.114;5.882;2023-12-20T10:03:19;4.16;;;3.47;;
68700;SDS011;55682;51.114;5.882;2023-12-20T10:05:52;3.97;;;3.31;;
68700;SDS011;55682;51.114;5.882;2023-12-20T10:08:21;3.73;;;3.16;;
68700;SDS011;55682;51.114;5.882;2023-12-20T10:10:47;3.77;;;3.17;;
68700;SDS011;55682;51.114;5.882;2023-12-20T10:13:13;3.85;;;3.26;;
68700;SDS011;55682;51.114;5.882;2023-12-20T10:15:40;3.67;;;3.08;;
68700;SDS011;55682;51.114;5.882;2023-12-20T10:18:06;3.75;;;3.23;;
68700;SDS011;55682;51.114;5.882;2023-12-20T10:20:32;3.71;;;3.11;;
68700;SDS011;55682;51.114;5.882;2023-12-20T10:22:59;4.26;;;3.57;;
68700;SDS011;55682;51.114;5.882;2023-12-20T10:25:25;3.51;;;3.03;;
68700;SDS011;55682;51.114;5.882;2023-12-20T10:28:08;3.20;;;2.82;;
68700;SDS011;55682;51.114;5.882;2023-12-20T10:30:35;3.66;;;3.20;;
68700;SDS011;55682;51.114;5.882;2023-12-20T10:33:02;3.50;;;3.00;;
68700;SDS011;55682;51.114;5.882;2023-12-20T10:35:27;3.65;;;3.06;;
68700;SDS011;55682;51.114;5.882;2023-12-20T10:37:55;3.66;;;3.11;;
68700;SDS011;55682;51.114;5.882;2023-12-20T10:40:22;3.87;;;3.24;;
68700;SDS011;55682;51.114;5.882;2023-12-20T10:42:48;3.76;;;3.22;;
68700;SDS011;55682;51.114;5.882;2023-12-20T10:45:15;3.55;;;3.09;;
68700;SDS011;55682;51.114;5.882;2023-12-20T10:47:43;3.57;;;3.15;;
68700;SDS011;55682;51.114;5.882;2023-12-20T10:50:12;3.71;;;3.24;;
68700;SDS011;55682;51.114;5.882;2023-12-20T10:52:38;4.02;;;3.43;;
68700;SDS011;55682;51.114;5.882;2023-12-20T10:55:06;3.91;;;3.36;;
68700;SDS011;55682;51.114;5.882;2023-12-20T10:57:32;4.12;;;3.57;;
68700;SDS011;55682;51.114;5.882;2023-12-20T11:00:01;3.94;;;3.39;;
68700;SDS011;55682;51.114;5.882;2023-12-20T11:02:33;3.98;;;3.45;;
68700;SDS011;55682;51.114;5.882;2023-12-20T11:07:42;4.16;;;3.58;;
68700;SDS011;55682;51.114;5.882;2023-12-20T11:10:21;4.21;;;3.54;;
68700;SDS011;55682;51.114;5.882;2023-12-20T11:12:52;4.74;;;3.90;;
68700;SDS011;55682;51.114;5.882;2023-12-20T11:15:35;4.47;;;3.71;;
68700;SDS011;55682;51.114;5.882;2023-12-20T11:18:02;4.01;;;3.38;;
68700;SDS011;55682;51.114;5.882;2023-12-20T11:20:37;3.93;;;3.34;;
68700;SDS011;55682;51.114;5.882;2023-12-20T11:23:05;3.99;;;3.47;;
68700;SDS011;55682;51.114;5.882;2023-12-20T11:28:20;3.63;;;3.30;;
68700;SDS011;55682;51.114;5.882;2023-12-20T11:30:49;3.28;;;3.03;;
68700;SDS011;55682;51.114;5.882;2023-12-20T11:33:17;3.64;;;3.35;;
68700;SDS011;55682;51.114;5.882;2023-12-20T11:35:48;3.64;;;3.33;;
68700;SDS011;55682;51.114;5.882;2023-12-20T11:38:13;3.55;;;3.16;;
68700;SDS011;55682;51.114;5.882;2023-12-20T11:40:41;4.09;;;3.57;;
68700;SDS011;55682;51.114;5.882;2023-12-20T11:43:08;3.71;;;3.25;;
68700;SDS011;55682;51.114;5.882;2023-12-20T11:45:34;3.60;;;3.16;;
68700;SDS011;55682;51.114;5.882;2023-12-20T11:48:01;3.59;;;3.17;;
68700;SDS011;55682;51.114;5.882;2023-12-20T11:50:28;3.73;;;3.30;;
68700;SDS011;55682;51.114;5.882;2023-12-20T11:52:55;3.99;;;3.55;;
68700;SDS011;55682;51.114;5.882;2023-12-20T11:55:22;3.81;;;3.39;;
68700;SDS011;55682;51.114;5.882;2023-12-20T11:57:49;3.91;;;3.49;;
68700;SDS011;55682;51.114;5.882;2023-12-20T12:00:15;3.87;;;3.43;;
68700;SDS011;55682;51.114;5.882;2023-12-20T12:02:42;4.21;;;3.78;;
68700;SDS011;55682;51.114;5.882;2023-12-20T12:05:08;3.95;;;3.57;;
68700;SDS011;55682;51.114;5.882;2023-12-20T12:07:34;4.21;;;3.85;;
68700;SDS011;55682;51.114;5.882;2023-12-20T12:10:00;3.67;;;3.42;;
68700;SDS011;55682;51.114;5.882;2023-12-20T12:12:26;3.88;;;3.58;;
68700;SDS011;55682;51.114;5.882;2023-12-20T12:14:53;4.19;;;3.84;;
68700;SDS011;55682;51.114;5.882;2023-12-20T12:17:19;3.60;;;3.37;;
68700;SDS011;55682;51.114;5.882;2023-12-20T12:19:45;3.65;;;3.49;;
68700;SDS011;55682;51.114;5.882;2023-12-20T12:22:12;3.84;;;3.55;;
68700;SDS011;55682;51.114;5.882;2023-12-20T12:24:44;4.16;;;3.69;;
68700;SDS011;55682;51.114;5.882;2023-12-20T12:27:12;4.15;;;3.76;;
68700;SDS011;55682;51.114;5.882;2023-12-20T12:29:39;4.13;;;3.87;;
68700;SDS011;55682;51.114;5.882;2023-12-20T12:32:08;4.06;;;3.82;;
68700;SDS011;55682;51.114;5.882;2023-12-20T12:34:35;3.66;;;3.46;;
68700;SDS011;55682;51.114;5.882;2023-12-20T12:37:02;4.15;;;3.93;;
68700;SDS011;55682;51.114;5.882;2023-12-20T12:39:29;3.88;;;3.71;;
68700;SDS011;55682;51.114;5.882;2023-12-20T12:41:56;3.86;;;3.73;;
68700;SDS011;55682;51.114;5.882;2023-12-20T12:44:25;4.12;;;3.97;;
68700;SDS011;55682;51.114;5.882;2023-12-20T12:46:50;3.35;;;3.34;;
68700;SDS011;55682;51.114;5.882;2023-12-20T12:49:19;3.54;;;3.54;;
68700;SDS011;55682;51.114;5.882;2023-12-20T12:51:45;3.88;;;3.71;;
68700;SDS011;55682;51.114;5.882;2023-12-20T12:54:12;3.75;;;3.64;;
68700;SDS011;55682;51.114;5.882;2023-12-20T12:56:39;3.95;;;3.84;;
68700;SDS011;55682;51.114;5.882;2023-12-20T12:59:04;3.91;;;3.81;;
68700;SDS011;55682;51.114;5.882;2023-12-20T13:01:31;4.00;;;3.86;;
68700;SDS011;55682;51.114;5.882;2023-12-20T13:03:56;3.66;;;3.52;;
68700;SDS011;55682;51.114;5.882;2023-12-20T13:06:22;3.44;;;3.23;;
68700;SDS011;55682;51.114;5.882;2023-12-20T13:08:48;3.69;;;3.54;;
68700;SDS011;55682;51.114;5.882;2023-12-20T13:11:15;3.65;;;3.51;;
68700;SDS011;55682;51.114;5.882;2023-12-20T13:13:40;4.04;;;3.91;;
68700;SDS011;55682;51.114;5.882;2023-12-20T13:16:06;3.76;;;3.70;;
68700;SDS011;55682;51.114;5.882;2023-12-20T13:18:32;3.52;;;3.49;;
68700;SDS011;55682;51.114;5.882;2023-12-20T13:20:57;3.90;;;3.88;;
68700;SDS011;55682;51.114;5.882;2023-12-20T13:23:23;3.77;;;3.74;;
68700;SDS011;55682;51.114;5.882;2023-12-20T13:25:48;3.73;;;3.65;;
68700;SDS011;55682;51.114;5.882;2023-12-20T13:28:14;3.90;;;3.73;;
68700;SDS011;55682;51.114;5.882;2023-12-20T13:30:40;4.20;;;4.14;;
68700;SDS011;55682;51.114;5.882;2023-12-20T13:33:06;3.93;;;3.90;;
68700;SDS011;55682;51.114;5.882;2023-12-20T13:35:32;4.11;;;4.06;;
68700;SDS011;55682;51.114;5.882;2023-12-20T13:37:58;3.92;;;3.91;;
68700;SDS011;55682;51.114;5.882;2023-12-20T13:40:25;3.68;;;3.67;;
68700;SDS011;55682;51.114;5.882;2023-12-20T13:42:51;3.75;;;3.73;;
68700;SDS011;55682;51.114;5.882;2023-12-20T13:45:17;3.84;;;3.84;;
68700;SDS011;55682;51.114;5.882;2023-12-20T13:47:43;3.84;;;3.80;;
68700;SDS011;55682;51.114;5.882;2023-12-20T13:50:09;4.03;;;3.97;;
68700;SDS011;55682;51.114;5.882;2023-12-20T13:52:35;3.92;;;3.83;;
68700;SDS011;55682;51.114;5.882;2023-12-20T13:55:01;3.91;;;3.79;;
68700;SDS011;55682;51.114;5.882;2023-12-20T13:57:27;4.13;;;3.99;;
68700;SDS011;55682;51.114;5.882;2023-12-20T13:59:54;4.39;;;4.22;;
68700;SDS011;55682;51.114;5.882;2023-12-20T14:02:22;4.72;;;4.46;;
68700;SDS011;55682;51.114;5.882;2023-12-20T14:04:48;4.79;;;4.49;;
68700;SDS011;55682;51.114;5.882;2023-12-20T14:07:14;3.96;;;3.81;;
68700;SDS011;55682;51.114;5.882;2023-12-20T14:09:40;4.06;;;3.85;;
68700;SDS011;55682;51.114;5.882;2023-12-20T14:12:13;4.30;;;4.07;;
68700;SDS011;55682;51.114;5.882;2023-12-20T14:14:39;3.75;;;3.58;;
68700;SDS011;55682;51.114;5.882;2023-12-20T14:17:05;4.14;;;4.00;;
68700;SDS011;55682;51.114;5.882;2023-12-20T14:19:34;3.92;;;3.84;;
68700;SDS011;55682;51.114;5.882;2023-12-20T14:22:00;4.05;;;4.05;;
68700;SDS011;55682;51.114;5.882;2023-12-20T14:24:29;3.53;;;3.52;;
68700;SDS011;55682;51.114;5.882;2023-12-20T14:26:55;3.42;;;3.41;;
68700;SDS011;55682;51.114;5.882;2023-12-20T14:29:21;3.52;;;3.51;;
68700;SDS011;55682;51.114;5.882;2023-12-20T14:31:46;3.47;;;3.47;;
68700;SDS011;55682;51.114;5.882;2023-12-20T14:34:12;3.93;;;3.84;;
68700;SDS011;55682;51.114;5.882;2023-12-20T14:36:37;4.07;;;3.89;;
68700;SDS011;55682;51.114;5.882;2023-12-20T14:39:03;3.90;;;3.77;;
68700;SDS011;55682;51.114;5.882;2023-12-20T14:41:30;3.88;;;3.71;;
68700;SDS011;55682;51.114;5.882;2023-12-20T14:43:56;4.14;;;3.95;;
68700;SDS011;55682;51.114;5.882;2023-12-20T14:46:21;4.04;;;3.88;;
68700;SDS011;55682;51.114;5.882;2023-12-20T14:48:47;4.22;;;3.99;;